Time;durP1;ratioP1;P1;durP2;ratioP2;P2;SDS_P1;SDS_P2;PMS_P1;PMS_P2;Temp;Humidity;BMP_temperature;BMP_pressure;BME280_temperature;BME280_humidity;BME280_pressure;Samples;Min_cycle;Max_cycle;Signal;HPM_P1;HPM_P2
2022/08/07 00:01:08;;;;;;;9.95;5.60;;;15.60;91.60;;;;;;4247265;27;20402;-82
2022/08/07 00:03:08;;;;;;;9.57;4.82;;;15.60;91.70;;;;;;4246708;27;20079;-82
2022/08/07 00:05:09;;;;;;;6.75;4.20;;;15.60;91.90;;;;;;4248281;27;20454;-82
2022/08/07 00:07:10;;;;;;;10.75;4.70;;;15.50;91.90;;;;;;4247055;27;20411;-82
2022/08/07 00:09:11;;;;;;;8.90;4.57;;;15.50;91.90;;;;;;4247176;27;20117;-82
2022/08/07 00:11:14;;;;;;;7.80;4.55;;;15.50;91.90;;;;;;4237018;27;20040;-82
2022/08/07 00:13:16;;;;;;;10.07;4.28;;;15.50;92.10;;;;;;4230979;27;20419;-82
2022/08/07 00:15:16;;;;;;;9.23;4.25;;;15.30;92.00;;;;;;4230055;28;20094;-82
2022/08/07 00:17:17;;;;;;;7.10;4.68;;;15.30;92.20;;;;;;4229479;28;20427;-82
2022/08/07 00:19:19;;;;;;;6.28;4.07;;;15.20;92.30;;;;;;4229325;28;20054;-82
2022/08/07 00:21:20;;;;;;;7.22;4.47;;;15.20;92.50;;;;;;4229700;28;20051;-82
2022/08/07 00:23:24;;;;;;;10.50;4.13;;;15.20;92.50;;;;;;4231307;27;20090;-80
2022/08/07 00:25:25;;;;;;;11.23;4.45;;;15.10;92.70;;;;;;4230460;28;20044;-82
2022/08/07 00:27:25;;;;;;;6.32;4.15;;;15.10;92.80;;;;;;4230140;28;20128;-82
2022/08/07 00:29:28;;;;;;;8.45;3.92;;;15.10;92.70;;;;;;4230071;28;20465;-82
2022/08/07 00:31:29;;;;;;;7.05;3.97;;;15.00;92.80;;;;;;4229856;28;20086;-82
2022/08/07 00:33:30;;;;;;;8.70;4.47;;;15.00;92.80;;;;;;4231119;28;20040;-82
2022/08/07 00:35:31;;;;;;;8.48;4.57;;;15.00;92.70;;;;;;4230496;28;20054;-82
2022/08/07 00:37:31;;;;;;;8.30;3.78;;;14.90;92.70;;;;;;4241412;27;20124;-82
2022/08/07 00:39:33;;;;;;;8.40;4.47;;;14.90;92.70;;;;;;4246558;27;20078;-81
2022/08/07 00:41:34;;;;;;;6.53;4.15;;;15.00;92.70;;;;;;4229895;28;20035;-82
2022/08/07 00:43:35;;;;;;;6.38;4.20;;;15.00;92.80;;;;;;4248105;27;20038;-82
2022/08/07 00:45:35;;;;;;;7.47;4.85;;;14.90;92.90;;;;;;4237709;27;20055;-82
2022/08/07 00:47:36;;;;;;;7.20;4.55;;;14.90;93.00;;;;;;4228516;28;20491;-82
2022/08/07 00:49:37;;;;;;;6.07;3.88;;;14.90;93.00;;;;;;4231107;28;20129;-82
2022/08/07 00:51:38;;;;;;;6.00;4.35;;;14.80;93.00;;;;;;4229498;28;20043;-82
2022/08/07 00:53:39;;;;;;;7.20;4.40;;;14.80;93.10;;;;;;4230849;28;20067;-82
2022/08/07 00:55:40;;;;;;;6.55;4.38;;;14.80;93.30;;;;;;4230973;28;20052;-82
2022/08/07 00:57:42;;;;;;;7.20;4.65;;;14.80;93.40;;;;;;4230192;28;20055;-82
2022/08/07 00:59:43;;;;;;;8.90;5.32;;;14.70;93.40;;;;;;4229111;28;20057;-82
2022/08/07 01:01:48;;;;;;;11.00;5.13;;;14.70;93.50;;;;;;4230942;28;20047;-82
2022/08/07 01:03:50;;;;;;;9.27;5.00;;;14.80;93.80;;;;;;4229701;28;20040;-82
2022/08/07 01:05:54;;;;;;;10.40;5.10;;;14.70;94.20;;;;;;4246108;28;20564;-82
2022/08/07 01:07:55;;;;;;;7.97;4.78;;;14.60;94.00;;;;;;4247579;27;20047;-82
2022/08/07 01:09:56;;;;;;;8.80;4.80;;;14.60;94.10;;;;;;4246238;28;20437;-82
2022/08/07 01:11:57;;;;;;;11.93;5.75;;;14.60;94.20;;;;;;4245603;28;20483;-82
2022/08/07 01:13:58;;;;;;;9.80;4.80;;;14.60;94.40;;;;;;4246543;28;20093;-82
2022/08/07 01:16:00;;;;;;;11.27;5.45;;;14.60;94.50;;;;;;4231378;27;20100;-82
2022/08/07 01:18:01;;;;;;;9.98;5.18;;;14.60;94.60;;;;;;4231003;28;20047;-82
2022/08/07 01:20:08;;;;;;;8.73;5.75;;;14.60;94.60;;;;;;4229323;28;20580;-82
2022/08/07 01:22:10;;;;;;;9.70;4.93;;;14.60;94.70;;;;;;4228779;28;20048;-82
2022/08/07 01:24:11;;;;;;;8.07;4.63;;;14.60;94.80;;;;;;4229303;28;20101;-82
2022/08/07 01:26:14;;;;;;;7.97;4.95;;;14.60;94.80;;;;;;4229178;28;20404;-82
2022/08/07 01:28:15;;;;;;;6.75;4.60;;;14.60;94.90;;;;;;4230270;28;20051;-82
2022/08/07 01:30:16;;;;;;;7.60;4.75;;;14.50;95.00;;;;;;4231761;28;20055;-82
2022/08/07 01:32:20;;;;;;;8.07;5.28;;;14.50;95.00;;;;;;4232965;28;20100;-82
2022/08/07 01:34:21;;;;;;;7.70;4.68;;;14.50;95.40;;;;;;4233740;28;20119;-82
2022/08/07 01:36:23;;;;;;;7.43;4.70;;;14.50;95.20;;;;;;4232615;28;20048;-82
2022/08/07 01:38:23;;;;;;;9.35;5.35;;;14.40;95.20;;;;;;4232388;28;20039;-82
2022/08/07 01:40:26;;;;;;;10.68;4.60;;;14.50;95.30;;;;;;4232553;28;20121;-82
2022/08/07 01:42:27;;;;;;;7.38;4.22;;;14.50;95.40;;;;;;4232503;28;20051;-81
2022/08/07 01:44:28;;;;;;;9.50;4.78;;;14.40;95.40;;;;;;4232162;28;20048;-81
2022/08/07 01:46:30;;;;;;;8.80;4.65;;;14.40;95.50;;;;;;4233597;28;20050;-81
2022/08/07 01:48:31;;;;;;;7.18;4.00;;;14.40;95.60;;;;;;4236857;27;20046;-82
2022/08/07 01:50:35;;;;;;;8.55;4.85;;;14.40;95.80;;;;;;4214760;28;20563;-81
2022/08/07 01:52:39;;;;;;;10.00;4.57;;;14.30;96.00;;;;;;4232301;28;20075;-82
2022/08/07 01:54:40;;;;;;;10.75;4.82;;;14.30;96.20;;;;;;4244179;27;20440;-81
2022/08/07 01:57:06;;;;;;;6.60;3.92;;;14.30;96.40;;;;;;4249226;27;20057;-81
2022/08/07 01:59:26;;;;;;;6.90;4.57;;;14.20;97.00;;;;;;4232032;28;20044;-80
2022/08/07 02:01:36;;;;;;;7.97;4.82;;;14.20;96.90;;;;;;4249753;27;20581;-83
2022/08/07 02:03:41;;;;;;;6.90;4.68;;;14.10;96.90;;;;;;4250272;27;20054;-83
2022/08/07 02:05:54;;;;;;;7.65;4.40;;;14.10;96.90;;;;;;4250297;27;20126;-82
2022/08/07 02:07:56;;;;;;;8.27;4.57;;;14.10;97.10;;;;;;4249914;27;20126;-82
2022/08/07 02:09:58;;;;;;;6.95;3.88;;;14.00;97.10;;;;;;4248887;27;20043;-81
2022/08/07 02:12:15;;;;;;;6.82;3.53;;;14.00;97.30;;;;;;4231817;28;20407;-81
2022/08/07 02:14:18;;;;;;;6.88;3.75;;;13.90;97.40;;;;;;4231977;27;20143;-81
2022/08/07 02:16:22;;;;;;;7.80;3.90;;;13.80;97.50;;;;;;4233040;28;20047;-81
2022/08/07 02:18:26;;;;;;;6.35;4.00;;;13.70;97.60;;;;;;4232310;28;20056;-81
2022/08/07 02:20:29;;;;;;;7.95;4.00;;;13.70;97.70;;;;;;4232952;27;20035;-80
2022/08/07 02:22:31;;;;;;;6.72;3.75;;;13.60;97.90;;;;;;4233250;28;20488;-80
2022/08/07 02:24:32;;;;;;;8.85;3.88;;;13.50;98.10;;;;;;4232467;28;20123;-80
2022/08/07 02:26:36;;;;;;;11.52;5.30;;;13.50;98.20;;;;;;4233432;28;20487;-81
2022/08/07 02:28:37;;;;;;;8.85;3.65;;;13.40;98.40;;;;;;4245262;27;20058;-82
2022/08/07 02:30:41;;;;;;;9.07;4.82;;;13.40;98.50;;;;;;4249905;27;20039;-81
2022/08/07 02:32:43;;;;;;;7.03;4.00;;;13.30;98.80;;;;;;4250179;27;20043;-81
2022/08/07 02:34:45;;;;;;;8.48;4.43;;;13.30;98.70;;;;;;4248467;27;20522;-81
2022/08/07 02:36:48;;;;;;;8.50;4.03;;;13.30;98.80;;;;;;4248901;27;20403;-81
2022/08/07 02:38:50;;;;;;;8.10;4.32;;;13.20;98.80;;;;;;4232128;28;20113;-81
2022/08/07 02:40:51;;;;;;;9.05;5.15;;;13.20;98.90;;;;;;4247882;27;20096;-81
2022/08/07 02:42:54;;;;;;;7.40;4.40;;;13.30;99.10;;;;;;4248161;27;20047;-81
2022/08/07 02:44:56;;;;;;;9.70;4.60;;;13.20;98.90;;;;;;4231616;28;20052;-81
2022/08/07 02:46:59;;;;;;;7.28;3.83;;;13.30;98.90;;;;;;4250218;27;20046;-82
2022/08/07 02:49:00;;;;;;;9.40;3.88;;;13.20;99.00;;;;;;4249759;27;20065;-82
2022/08/07 02:51:07;;;;;;;8.32;3.88;;;13.20;99.00;;;;;;4249845;27;20035;-82
2022/08/07 02:53:11;;;;;;;8.07;4.15;;;13.20;99.20;;;;;;4249790;27;20046;-82
2022/08/07 02:55:19;;;;;;;6.72;3.63;;;13.20;99.20;;;;;;4249664;27;20043;-81
2022/08/07 02:57:22;;;;;;;10.43;4.88;;;13.20;99.20;;;;;;4239816;27;20050;-81
2022/08/07 02:59:26;;;;;;;8.52;3.47;;;13.20;99.10;;;;;;4232466;28;20436;-82
2022/08/07 03:01:30;;;;;;;6.60;3.50;;;13.20;99.10;;;;;;4214566;28;20062;-82
2022/08/07 03:03:33;;;;;;;6.93;3.50;;;13.20;99.20;;;;;;4232563;28;20047;-81
2022/08/07 03:05:35;;;;;;;5.10;3.17;;;13.20;99.20;;;;;;4232241;28;20438;-82
2022/08/07 03:07:37;;;;;;;8.40;4.22;;;13.20;99.20;;;;;;4231312;28;20047;-82
2022/08/07 03:09:40;;;;;;;6.80;3.42;;;13.20;99.10;;;;;;4232393;28;20373;-82
2022/08/07 03:11:42;;;;;;;5.53;3.20;;;13.20;99.10;;;;;;4232679;28;20050;-82
2022/08/07 03:13:43;;;;;;;7.55;3.25;;;13.20;99.10;;;;;;4230972;27;20419;-81
2022/08/07 03:15:45;;;;;;;8.85;3.63;;;13.20;99.10;;;;;;4232762;28;20408;-82
2022/08/07 03:17:46;;;;;;;8.65;3.80;;;13.20;99.20;;;;;;4230942;28;20048;-82
2022/08/07 03:19:49;;;;;;;6.00;2.95;;;13.20;99.20;;;;;;4232310;28;20092;-81
2022/08/07 03:21:51;;;;;;;4.80;3.10;;;13.20;99.20;;;;;;4232560;28;20039;-82
2022/08/07 03:23:55;;;;;;;7.15;3.00;;;13.20;99.10;;;;;;4214324;28;20098;-82
2022/08/07 03:25:59;;;;;;;6.07;3.10;;;13.20;99.20;;;;;;4231181;28;20075;-82
2022/08/07 03:28:00;;;;;;;6.30;3.63;;;13.20;99.20;;;;;;4230528;28;20716;-81
2022/08/07 03:30:02;;;;;;;4.53;2.90;;;13.20;99.10;;;;;;4230639;28;20128;-82
2022/08/07 03:32:08;;;;;;;6.40;3.05;;;13.20;99.10;;;;;;4240085;27;20039;-82
2022/08/07 03:34:09;;;;;;;5.53;3.00;;;13.20;99.10;;;;;;4247911;27;20061;-81
2022/08/07 03:36:13;;;;;;;6.13;2.80;;;13.20;99.10;;;;;;4247828;27;20051;-82
2022/08/07 03:38:15;;;;;;;4.60;2.95;;;13.20;99.20;;;;;;4247864;27;20137;-82
2022/08/07 03:40:18;;;;;;;5.35;3.22;;;13.20;99.20;;;;;;4249214;27;20421;-82
2022/08/07 03:42:19;;;;;;;4.60;2.78;;;13.30;99.20;;;;;;4247498;27;20126;-82
2022/08/07 03:44:20;;;;;;;6.70;3.70;;;13.30;99.10;;;;;;4246753;27;20162;-81
2022/08/07 03:46:23;;;;;;;5.25;2.95;;;13.20;99.20;;;;;;4249248;27;20047;-81
2022/08/07 03:48:24;;;;;;;6.63;3.55;;;13.30;99.10;;;;;;4249043;27;20042;-81
2022/08/07 03:50:26;;;;;;;8.13;3.33;;;13.50;99.20;;;;;;4247267;27;20144;-82
2022/08/07 03:52:28;;;;;;;5.50;2.67;;;13.30;99.20;;;;;;4247332;27;20122;-82
2022/08/07 03:54:29;;;;;;;7.15;3.60;;;13.20;99.20;;;;;;4248206;27;20059;-81
2022/08/07 03:56:33;;;;;;;6.78;3.03;;;13.20;99.30;;;;;;4247619;27;20132;-81
2022/08/07 03:58:34;;;;;;;8.25;3.33;;;13.20;99.30;;;;;;4246948;27;20095;-81
2022/08/07 04:00:37;;;;;;;7.40;3.45;;;13.30;99.30;;;;;;4248157;27;20043;-81
2022/08/07 04:02:38;;;;;;;5.32;2.97;;;13.30;99.50;;;;;;4230334;28;20046;-81
2022/08/07 04:04:41;;;;;;;4.93;2.78;;;13.20;99.20;;;;;;4229858;28;20093;-82
2022/08/07 04:06:43;;;;;;;6.75;3.20;;;13.20;99.20;;;;;;4230677;28;20449;-81
2022/08/07 04:08:44;;;;;;;6.55;2.85;;;13.20;99.20;;;;;;4246950;27;20051;-81
2022/08/07 04:10:47;;;;;;;5.28;2.55;;;13.20;99.40;;;;;;4236039;27;20089;-82
2022/08/07 04:12:49;;;;;;;9.52;3.20;;;13.10;99.20;;;;;;4231183;28;20048;-82
2022/08/07 04:14:50;;;;;;;6.97;3.45;;;13.10;99.40;;;;;;4231324;28;20048;-81
2022/08/07 04:16:51;;;;;;;4.05;2.50;;;13.10;99.40;;;;;;4231428;27;20110;-82
2022/08/07 04:18:55;;;;;;;4.70;2.78;;;12.90;99.30;;;;;;4212556;28;20112;-82
2022/08/07 04:20:56;;;;;;;4.20;2.65;;;13.10;99.40;;;;;;4229697;28;20070;-82
2022/08/07 04:22:57;;;;;;;6.05;2.80;;;13.00;99.30;;;;;;4230137;28;20043;-82
2022/08/07 04:24:59;;;;;;;4.53;2.63;;;13.00;99.30;;;;;;4230817;28;20058;-81
2022/08/07 04:27:03;;;;;;;5.03;2.58;;;13.00;99.30;;;;;;4230540;28;20249;-82
2022/08/07 04:29:08;;;;;;;4.95;2.80;;;13.00;99.40;;;;;;4230042;28;20048;-82
2022/08/07 04:31:09;;;;;;;5.40;3.13;;;13.00;99.30;;;;;;4230592;28;20388;-82
2022/08/07 04:33:11;;;;;;;5.30;2.42;;;13.00;99.40;;;;;;4230487;28;20047;-82
2022/08/07 04:35:12;;;;;;;7.20;2.78;;;13.00;99.50;;;;;;4230302;28;20515;-82
2022/08/07 04:37:13;;;;;;;5.72;3.30;;;13.10;99.60;;;;;;4229514;28;20156;-81
2022/08/07 04:39:14;;;;;;;6.50;3.10;;;13.10;99.60;;;;;;4230267;28;20065;-81
2022/08/07 04:41:15;;;;;;;5.63;2.80;;;13.10;99.50;;;;;;4240243;27;20039;-81
2022/08/07 04:43:19;;;;;;;5.05;2.38;;;13.10;99.40;;;;;;4246505;27;20101;-81
2022/08/07 04:45:20;;;;;;;5.70;3.15;;;13.20;99.50;;;;;;4232757;27;20271;-82
2022/08/07 04:47:32;;;;;;;6.47;2.90;;;13.20;99.40;;;;;;4230225;28;20047;-82
2022/08/07 04:49:44;;;;;;;5.72;2.85;;;13.20;99.40;;;;;;4230456;28;20039;-82
2022/08/07 04:51:44;;;;;;;6.68;3.45;;;13.20;99.30;;;;;;4245447;27;20039;-82
2022/08/07 04:53:50;;;;;;;6.28;2.97;;;13.80;99.40;;;;;;4247561;27;20054;-82
2022/08/07 04:56:04;;;;;;;5.32;2.80;;;13.20;99.20;;;;;;4247341;27;20536;-81
2022/08/07 04:58:21;;;;;;;4.38;2.65;;;13.30;99.30;;;;;;4245932;27;20058;-82
2022/08/07 05:00:37;;;;;;;5.43;3.20;;;13.30;99.30;;;;;;4213515;28;20054;-81
2022/08/07 05:03:03;;;;;;;7.22;2.65;;;13.40;99.20;;;;;;4246185;28;20082;-81
2022/08/07 05:05:18;;;;;;;5.78;3.00;;;13.40;99.20;;;;;;4247401;27;20098;-81
2022/08/07 05:07:29;;;;;;;4.57;2.78;;;13.40;99.10;;;;;;4247538;27;20495;-81
2022/08/07 05:09:56;;;;;;;4.88;2.97;;;13.40;99.20;;;;;;4246420;28;20431;-81
2022/08/07 05:12:01;;;;;;;4.82;2.67;;;13.50;99.20;;;;;;4246510;28;20035;-81
2022/08/07 05:14:09;;;;;;;6.18;3.47;;;13.50;99.10;;;;;;4231002;27;20054;-81
2022/08/07 05:16:13;;;;;;;4.95;2.60;;;13.90;99.10;;;;;;4230548;28;20085;-81
2022/08/07 05:18:31;;;;;;;5.55;2.58;;;13.60;99.00;;;;;;4228847;28;20076;-81
2022/08/07 05:20:46;;;;;;;6.72;2.65;;;13.70;99.00;;;;;;4231117;28;20047;-81
2022/08/07 05:22:49;;;;;;;4.82;2.60;;;13.70;98.70;;;;;;4231039;28;20115;-82
2022/08/07 05:24:54;;;;;;;3.90;2.17;;;13.90;98.50;;;;;;4231162;28;20063;-81
2022/08/07 05:26:57;;;;;;;7.85;3.15;;;13.90;98.40;;;;;;4238294;28;20085;-81
2022/08/07 05:29:01;;;;;;;3.63;2.55;;;14.00;98.20;;;;;;4246620;28;20058;-81
2022/08/07 05:31:03;;;;;;;6.47;2.85;;;14.10;98.10;;;;;;4246311;28;20410;-81
2022/08/07 05:33:05;;;;;;;3.67;2.22;;;14.20;97.90;;;;;;4247224;27;20079;-82
2022/08/07 05:35:10;;;;;;;5.93;2.70;;;14.30;97.80;;;;;;4246413;28;20046;-82
2022/08/07 05:37:14;;;;;;;3.85;2.45;;;14.30;97.70;;;;;;4247912;27;20551;-82
2022/08/07 05:39:18;;;;;;;4.30;2.40;;;14.50;97.50;;;;;;4247184;27;20039;-82
2022/08/07 05:41:20;;;;;;;3.42;2.13;;;14.50;97.40;;;;;;4247834;27;20043;-82
2022/08/07 05:43:21;;;;;;;4.68;2.22;;;14.60;97.20;;;;;;4247822;27;20411;-82
2022/08/07 05:45:23;;;;;;;5.25;2.55;;;14.60;97.10;;;;;;4228991;28;20129;-82
2022/08/07 05:47:24;;;;;;;5.63;2.40;;;14.70;97.00;;;;;;4246546;28;20049;-82
2022/08/07 05:49:25;;;;;;;4.15;2.30;;;14.80;96.90;;;;;;4246751;28;20126;-82
2022/08/07 05:51:26;;;;;;;3.47;2.25;;;14.90;96.80;;;;;;4246263;28;20104;-83
2022/08/07 05:53:27;;;;;;;5.03;2.17;;;14.90;96.60;;;;;;4231224;28;20040;-82
2022/08/07 05:55:31;;;;;;;5.68;2.55;;;15.00;96.50;;;;;;4230717;28;20039;-82
2022/08/07 05:57:34;;;;;;;3.95;2.20;;;15.10;96.30;;;;;;4230953;28;20044;-82
2022/08/07 05:59:40;;;;;;;5.40;1.92;;;15.20;96.20;;;;;;4229989;28;20043;-82
2022/08/07 06:01:43;;;;;;;4.13;2.05;;;15.30;96.10;;;;;;4229159;28;20052;-82
2022/08/07 06:03:57;;;;;;;4.00;2.42;;;15.40;96.00;;;;;;4229242;28;20059;-82
2022/08/07 06:05:59;;;;;;;3.25;2.03;;;15.50;95.80;;;;;;4234466;28;20078;-82
2022/08/07 06:08:01;;;;;;;3.55;2.08;;;15.50;95.60;;;;;;4245497;28;20070;-82
2022/08/07 06:10:03;;;;;;;3.17;2.17;;;15.60;95.40;;;;;;4246369;28;20137;-82
2022/08/07 06:12:04;;;;;;;4.32;2.40;;;15.70;95.20;;;;;;4247552;27;20076;-82
2022/08/07 06:14:05;;;;;;;3.45;2.17;;;15.70;95.00;;;;;;4246293;28;20153;-82
2022/08/07 06:16:06;;;;;;;3.55;2.25;;;15.80;94.80;;;;;;4234991;28;20059;-82
2022/08/07 06:18:08;;;;;;;4.28;2.15;;;15.90;94.70;;;;;;4216347;28;20050;-82
2022/08/07 06:20:10;;;;;;;4.43;2.20;;;16.00;94.60;;;;;;4215837;28;20048;-82
2022/08/07 06:22:12;;;;;;;5.20;2.00;;;16.10;94.90;;;;;;4233716;28;20134;-82
2022/08/07 06:24:13;;;;;;;3.60;2.15;;;16.10;94.40;;;;;;4236254;28;20051;-82
2022/08/07 06:26:14;;;;;;;5.53;2.00;;;16.20;94.40;;;;;;4247970;28;20058;-81
2022/08/07 06:28:15;;;;;;;3.88;1.85;;;16.30;94.10;;;;;;4248914;28;20082;-80
2022/08/07 06:30:16;;;;;;;2.67;1.58;;;16.30;93.90;;;;;;4243716;27;20044;-81
2022/08/07 06:32:17;;;;;;;4.80;1.80;;;16.40;93.80;;;;;;4241546;27;20083;-82
2022/08/07 06:34:18;;;;;;;4.13;1.63;;;16.40;93.60;;;;;;4243055;28;20040;-82
2022/08/07 06:36:25;;;;;;;3.97;1.70;;;16.50;93.40;;;;;;4243297;28;20543;-81
2022/08/07 06:38:26;;;;;;;3.85;1.90;;;16.50;93.20;;;;;;4226986;28;20048;-81
2022/08/07 06:40:29;;;;;;;2.42;1.75;;;16.60;92.90;;;;;;4244279;28;20040;-81
2022/08/07 06:42:36;;;;;;;3.05;1.50;;;16.60;92.80;;;;;;4243872;27;20043;-81
2022/08/07 06:44:38;;;;;;;2.63;1.70;;;16.70;92.80;;;;;;4232182;28;20131;-82
2022/08/07 06:46:40;;;;;;;3.55;1.75;;;16.80;92.70;;;;;;4250779;27;20438;-82
2022/08/07 06:48:42;;;;;;;2.88;1.70;;;16.80;92.50;;;;;;4248550;27;20043;-82
2022/08/07 06:50:44;;;;;;;2.97;1.30;;;16.90;92.40;;;;;;4250475;27;20038;-82
2022/08/07 06:52:49;;;;;;;5.18;1.58;;;16.90;92.20;;;;;;4231988;28;20050;-82
2022/08/07 06:54:51;;;;;;;3.80;1.40;;;17.00;92.00;;;;;;4250915;27;20126;-82
2022/08/07 06:56:54;;;;;;;2.55;1.42;;;17.10;91.90;;;;;;4249072;27;20058;-83
2022/08/07 06:59:02;;;;;;;3.03;1.40;;;17.10;91.70;;;;;;4233980;27;20494;-82
2022/08/07 07:01:07;;;;;;;2.78;1.50;;;17.20;91.60;;;;;;4233310;27;20385;-82
2022/08/07 07:03:10;;;;;;;3.80;1.67;;;17.40;91.50;;;;;;4214845;28;20048;-82
2022/08/07 07:05:12;;;;;;;3.10;1.70;;;17.40;91.30;;;;;;4231874;28;20089;-82
2022/08/07 07:07:14;;;;;;;3.13;1.40;;;17.50;91.20;;;;;;4245881;27;20050;-82
2022/08/07 07:09:20;;;;;;;4.40;1.30;;;17.60;91.00;;;;;;4250024;27;20050;-82
2022/08/07 07:11:20;;;;;;;1.63;1.27;;;17.70;90.80;;;;;;4249820;27;20484;-82
2022/08/07 07:13:38;;;;;;;2.72;1.38;;;17.70;90.80;;;;;;4248528;27;20490;-82
2022/08/07 07:15:45;;;;;;;2.25;1.10;;;17.70;90.40;;;;;;4248526;27;20089;-82
2022/08/07 07:17:48;;;;;;;2.53;1.20;;;17.80;90.50;;;;;;4244439;27;20487;-82
2022/08/07 07:19:54;;;;;;;1.95;1.17;;;17.80;90.80;;;;;;4233220;28;20054;-82
2022/08/07 07:21:55;;;;;;;3.58;1.25;;;18.00;90.40;;;;;;4231259;28;20136;-82
2022/08/07 07:23:56;;;;;;;4.22;1.48;;;18.00;90.30;;;;;;4214556;28;20455;-82
2022/08/07 07:26:01;;;;;;;2.90;1.40;;;18.00;90.20;;;;;;4232482;28;20047;-82
2022/08/07 07:28:11;;;;;;;2.58;1.40;;;18.10;90.00;;;;;;4230590;28;20487;-82
2022/08/07 07:30:12;;;;;;;2.15;1.35;;;18.20;89.90;;;;;;4232457;27;20068;-82
2022/08/07 07:32:14;;;;;;;1.92;1.23;;;18.30;89.60;;;;;;4232662;28;20042;-82
2022/08/07 07:34:23;;;;;;;2.85;1.33;;;18.40;89.40;;;;;;4232122;28;20039;-82
2022/08/07 07:36:27;;;;;;;;;;;18.50;89.30;;;;;;4231574;28;20159;-82
2022/08/07 07:38:30;;;;;;;2.28;1.23;;;18.70;88.60;;;;;;4214178;28;19981;-82
2022/08/07 07:40:33;;;;;;;2.60;1.48;;;18.80;88.70;;;;;;4230732;28;20059;-82
2022/08/07 07:42:35;;;;;;;4.07;2.20;;;18.90;88.20;;;;;;4230878;28;20079;-82
2022/08/07 07:44:40;;;;;;;4.15;2.00;;;19.00;87.90;;;;;;4230807;28;20123;-82
2022/08/07 07:46:42;;;;;;;4.07;2.35;;;19.10;87.20;;;;;;4230795;28;20048;-81
2022/08/07 07:48:47;;;;;;;4.28;2.15;;;19.10;86.80;;;;;;4213889;28;20471;-83
2022/08/07 07:50:51;;;;;;;3.78;2.10;;;19.10;86.10;;;;;;4214427;28;20091;-82
2022/08/07 07:52:55;;;;;;;3.97;1.90;;;19.20;86.20;;;;;;4230338;28;20043;-82
2022/08/07 07:54:56;;;;;;;5.00;1.92;;;19.30;85.70;;;;;;4214017;28;20523;-82
2022/08/07 07:56:59;;;;;;;3.65;1.92;;;19.40;85.10;;;;;;4232096;28;20039;-82
2022/08/07 07:59:01;;;;;;;3.92;2.10;;;19.50;84.80;;;;;;4231926;28;20048;-82
2022/08/07 08:01:03;;;;;;;4.35;2.38;;;19.70;84.60;;;;;;4231146;28;20062;-82
2022/08/07 08:03:10;;;;;;;2.75;1.60;;;19.90;84.10;;;;;;4231801;28;20043;-82
2022/08/07 08:05:12;;;;;;;4.93;2.45;;;20.00;84.10;;;;;;4231731;27;20039;-82
2022/08/07 08:07:18;;;;;;;3.88;1.95;;;20.10;83.60;;;;;;4213512;28;20078;-82
2022/08/07 08:09:23;;;;;;;6.18;2.60;;;20.30;83.30;;;;;;4231974;28;20083;-82
2022/08/07 08:11:24;;;;;;;4.25;2.00;;;20.40;82.80;;;;;;4230348;28;20052;-82
2022/08/07 08:13:28;;;;;;;3.58;2.22;;;20.60;82.00;;;;;;4234831;27;20118;-82
2022/08/07 08:15:34;;;;;;;3.78;2.20;;;20.80;81.50;;;;;;4247572;27;20039;-82
2022/08/07 08:17:35;;;;;;;4.70;2.25;;;21.00;81.60;;;;;;4248823;27;20051;-82
2022/08/07 08:19:38;;;;;;;4.38;2.50;;;21.10;80.90;;;;;;4248414;27;20043;-83
2022/08/07 08:28:46;;;;;;;3.38;2.10;;;21.50;80.20;;;;;;4232125;28;20048;-83
2022/08/07 08:30:57;;;;;;;3.00;2.33;;;21.80;79.50;;;;;;4231358;28;20141;-83
2022/08/07 08:33:02;;;;;;;4.57;2.08;;;21.80;77.90;;;;;;4231361;28;20058;-82
2022/08/07 08:35:05;;;;;;;4.22;2.20;;;21.90;77.40;;;;;;4231101;28;20043;-83
2022/08/07 08:37:07;;;;;;;4.40;2.20;;;22.00;77.00;;;;;;4231202;28;20047;-83
2022/08/07 08:39:09;;;;;;;3.22;2.22;;;22.00;76.10;;;;;;4230526;28;20122;-83
2022/08/07 08:41:20;;;;;;;2.63;1.95;;;22.00;75.60;;;;;;4240185;27;20507;-83
2022/08/07 08:43:44;;;;;;;3.50;2.20;;;22.20;75.60;;;;;;4246976;27;20476;-83
2022/08/07 08:46:11;;;;;;;4.78;1.88;;;22.50;74.90;;;;;;4246666;27;20047;-82
2022/08/07 08:48:26;;;;;;;6.10;2.58;;;22.80;74.00;;;;;;4247905;27;20086;-82
2022/08/07 08:50:36;;;;;;;4.53;2.25;;;23.10;73.10;;;;;;4229449;28;20079;-82
2022/08/07 08:52:36;;;;;;;6.18;2.30;;;23.40;72.60;;;;;;4247833;27;20047;-82
2022/08/07 08:54:54;;;;;;;4.55;2.70;;;23.20;72.10;;;;;;4247479;27;20376;-82
2022/08/07 08:56:59;;;;;;;3.38;2.20;;;23.20;71.40;;;;;;4247726;27;20043;-82
2022/08/07 08:59:23;;;;;;;5.00;2.35;;;23.20;71.30;;;;;;4229687;28;20112;-82
2022/08/07 09:01:45;;;;;;;3.25;2.03;;;23.60;70.40;;;;;;4246663;27;20084;-82
2022/08/07 09:03:59;;;;;;;3.40;2.25;;;23.80;69.00;;;;;;4246030;28;20051;-82
2022/08/07 09:06:15;;;;;;;3.30;1.90;;;23.60;69.40;;;;;;4249069;27;20462;-82
2022/08/07 09:08:45;;;;;;;4.28;1.92;;;23.50;69.20;;;;;;4246701;28;20050;-83
2022/08/07 09:11:09;;;;;;;3.22;2.35;;;23.50;69.20;;;;;;4243077;27;20054;-83
2022/08/07 09:13:13;;;;;;;3.67;1.95;;;23.50;70.50;;;;;;4247309;28;20078;-83
2022/08/07 09:15:35;;;;;;;5.57;2.22;;;23.90;70.10;;;;;;4247833;27;20050;-82
2022/08/07 09:17:57;;;;;;;3.67;2.00;;;24.20;69.10;;;;;;4247447;28;20047;-82
2022/08/07 09:20:21;;;;;;;5.22;1.80;;;24.70;66.20;;;;;;4247564;28;20394;-83
2022/08/07 09:22:45;;;;;;;2.28;1.50;;;25.00;67.00;;;;;;4248055;27;20481;-83
2022/08/07 09:25:05;;;;;;;3.05;1.90;;;25.10;64.70;;;;;;4247927;27;20077;-82
2022/08/07 09:27:29;;;;;;;5.97;2.38;;;25.00;64.30;;;;;;4247282;28;20047;-82
2022/08/07 09:29:52;;;;;;;3.22;2.00;;;24.90;63.70;;;;;;4247770;27;20069;-83
2022/08/07 09:32:27;;;;;;;6.40;1.98;;;24.90;63.40;;;;;;4247648;28;20046;-83
2022/08/07 09:34:44;;;;;;;5.40;1.88;;;25.00;62.30;;;;;;4230905;28;20040;-83
2022/08/07 09:37:00;;;;;;;2.47;1.75;;;24.80;63.20;;;;;;4246228;28;20054;-82
2022/08/07 09:39:19;;;;;;;5.03;1.77;;;24.80;62.90;;;;;;4247036;27;20053;-82
2022/08/07 09:41:20;;;;;;;3.33;1.70;;;24.70;63.60;;;;;;4229214;28;20517;-82
2022/08/07 09:43:30;;;;;;;3.30;1.60;;;24.70;63.60;;;;;;4229034;28;20128;-83
2022/08/07 09:45:46;;;;;;;3.20;1.70;;;24.50;61.90;;;;;;4244935;27;20047;-82
2022/08/07 09:48:20;;;;;;;2.72;1.50;;;24.40;61.30;;;;;;4229081;28;20125;-83
2022/08/07 09:50:50;;;;;;;3.20;1.80;;;24.20;61.40;;;;;;4247372;27;20047;-82
2022/08/07 09:53:06;;;;;;;4.78;2.08;;;24.10;62.40;;;;;;4232224;28;20040;-82
2022/08/07 09:55:44;;;;;;;4.07;2.05;;;24.20;62.20;;;;;;4250792;27;20062;-83
2022/08/07 09:58:03;;;;;;;2.72;1.65;;;24.40;63.00;;;;;;4232523;28;20047;-83
2022/08/07 10:00:04;;;;;;;;;;;24.50;62.00;;;;;;4250488;27;20051;-83
2022/08/07 10:02:39;;;;;;;4.32;2.00;;;24.60;57.50;;;;;;4250372;27;19949;-83
2022/08/07 10:04:48;;;;;;;2.97;1.67;;;24.50;60.10;;;;;;4250678;27;20135;-84
2022/08/07 10:07:35;;;;;;;2.50;1.42;;;24.80;60.60;;;;;;4231860;28;20043;-83
2022/08/07 10:09:45;;;;;;;2.70;1.45;;;25.30;59.30;;;;;;4232592;27;20040;-82
2022/08/07 10:12:06;;;;;;;4.63;1.58;;;25.90;60.20;;;;;;4250440;27;20039;-82
2022/08/07 10:14:37;;;;;;;2.78;1.45;;;26.20;58.90;;;;;;4250446;27;20491;-83
2022/08/07 10:16:53;;;;;;;2.25;1.55;;;26.40;58.00;;;;;;4250024;27;20047;-82
2022/08/07 10:19:15;;;;;;;3.58;1.48;;;26.90;56.00;;;;;;4250377;27;20050;-82
2022/08/07 10:21:44;;;;;;;2.50;1.63;;;27.00;54.90;;;;;;4250371;27;20058;-82
2022/08/07 10:24:24;;;;;;;1.98;1.55;;;27.10;54.10;;;;;;4232009;28;20048;-83
2022/08/07 10:26:43;;;;;;;2.60;1.45;;;26.90;54.10;;;;;;4231980;28;20130;-83
2022/08/07 10:29:05;;;;;;;2.63;1.75;;;26.80;52.70;;;;;;4249865;27;20047;-83
2022/08/07 10:31:48;;;;;;;2.55;1.63;;;26.40;49.70;;;;;;4232050;28;20075;-83
2022/08/07 10:33:54;;;;;;;3.55;1.30;;;26.00;53.70;;;;;;4249993;27;20046;-83
2022/08/07 10:36:22;;;;;;;2.55;1.60;;;26.00;55.70;;;;;;4231851;28;20047;-83
2022/08/07 10:38:37;;;;;;;2.92;1.40;;;26.30;55.80;;;;;;4264199;27;20043;-83
2022/08/07 10:40:52;;;;;;;2.58;1.50;;;26.70;55.00;;;;;;4267477;27;20057;-83
2022/08/07 10:43:25;;;;;;;4.00;1.30;;;26.40;52.20;;;;;;4267355;27;20406;-83
2022/08/07 10:45:32;;;;;;;2.25;0.98;;;26.30;52.30;;;;;;4262111;27;20518;-83
2022/08/07 10:47:46;;;;;;;2.08;1.10;;;26.60;51.90;;;;;;4250118;27;20027;-83
2022/08/07 10:49:55;;;;;;;1.80;1.08;;;26.80;52.00;;;;;;4249944;27;20416;-82
2022/08/07 10:52:01;;;;;;;2.78;1.30;;;27.30;52.60;;;;;;4249865;27;20074;-82
2022/08/07 10:54:20;;;;;;;1.90;1.17;;;27.60;51.30;;;;;;4203407;28;20051;-82
2022/08/07 10:56:57;;;;;;;1.95;1.20;;;27.70;48.30;;;;;;4267066;27;20046;-82
2022/08/07 10:59:06;;;;;;;1.50;1.10;;;27.60;49.80;;;;;;4267033;27;20099;-83
2022/08/07 11:01:26;;;;;;;1.65;1.17;;;27.50;49.20;;;;;;4248716;27;20514;-83
2022/08/07 11:04:22;;;;;;;2.95;1.23;;;27.60;49.10;;;;;;4265171;27;20053;-83
2022/08/07 11:06:40;;;;;;;3.60;1.45;;;27.60;47.80;;;;;;4250501;27;20051;-83
2022/08/07 11:08:59;;;;;;;1.50;1.05;;;27.30;49.70;;;;;;4230914;28;20080;-82